Time;durP1;ratioP1;P1;durP2;ratioP2;P2;SDS_P1;SDS_P2;PMS_P1;PMS_P2;Temp;Humidity;BMP_temperature;BMP_pressure;BME280_temperature;BME280_humidity;BME280_pressure;Samples;Min_cycle;Max_cycle;Signal;HPM_P1;HPM_P2
2023/06/20 00:00:15;;;;;;;1.98;1.35;;;;;;;20.34;69.86;99681.16;5095217;28;20097;-81
2023/06/20 00:02:41;;;;;;;2.90;2.08;;;;;;;20.31;70.05;99654.56;5089813;28;20124;-81
2023/06/20 00:05:06;;;;;;;5.22;1.85;;;;;;;20.48;69.60;99688.44;5074113;28;20549;-81
2023/06/20 00:07:33;;;;;;;2.88;1.60;;;;;;;20.39;69.62;99654.13;5094530;28;20111;-82
2023/06/20 00:09:58;;;;;;;3.53;2.10;;;;;;;20.31;69.78;99651.00;5098345;28;20108;-81
2023/06/20 00:12:23;;;;;;;3.38;2.00;;;;;;;20.43;70.01;99671.72;5114173;28;20128;-81
2023/06/20 00:14:49;;;;;;;3.90;2.55;;;;;;;20.46;69.86;99679.59;5113349;28;20036;-81
2023/06/20 00:17:14;;;;;;;3.90;2.58;;;;;;;20.51;68.75;99669.50;5114411;28;20028;-81
2023/06/20 00:19:41;;;;;;;3.05;1.92;;;;;;;20.05;69.52;99621.19;5112176;28;20043;-81
2023/06/20 00:22:06;;;;;;;7.68;2.80;;;;;;;20.32;69.41;99671.47;5093321;28;20387;-81
2023/06/20 00:24:32;;;;;;;3.97;2.97;;;;;;;20.15;69.21;99653.66;5094077;28;20036;-82
2023/06/20 00:27:02;;;;;;;7.10;2.72;;;;;;;20.11;69.95;99663.69;5092398;28;20086;-81
2023/06/20 00:29:28;;;;;;;5.68;2.33;;;;;;;20.30;69.30;99670.72;5113527;28;20455;-81
2023/06/20 00:31:53;;;;;;;4.32;2.60;;;;;;;20.31;69.28;99678.66;5111849;28;20031;-81
2023/06/20 00:34:19;;;;;;;6.68;3.72;;;;;;;20.01;69.03;99633.00;5101168;28;20047;-80
2023/06/20 00:36:45;;;;;;;5.68;2.78;;;;;;;19.85;69.13;99635.66;5105465;27;20040;-80
2023/06/20 00:39:11;;;;;;;5.78;3.00;;;;;;;20.18;68.72;99662.38;5105972;28;20442;-80
2023/06/20 00:41:36;;;;;;;5.13;2.00;;;;;;;20.18;68.86;99637.44;5109599;28;20028;-80
2023/06/20 00:44:03;;;;;;;3.60;2.00;;;;;;;20.26;69.50;99661.97;5095353;28;20124;-80
2023/06/20 00:46:41;;;;;;;6.63;2.10;;;;;;;20.26;69.86;99666.47;5097551;28;20401;-79
2023/06/20 00:49:09;;;;;;;3.85;2.33;;;;;;;20.15;69.58;99641.13;5113063;28;20373;-80
2023/06/20 00:51:37;;;;;;;4.70;2.75;;;;;;;20.28;68.93;99668.13;5111826;28;20047;-80
2023/06/20 00:54:03;;;;;;;3.42;2.80;;;;;;;20.32;69.16;99666.13;5111977;28;20104;-80
2023/06/20 00:56:29;;;;;;;4.32;3.10;;;;;;;20.09;70.13;99643.28;5112721;28;20040;-80
2023/06/20 00:58:55;;;;;;;5.05;3.42;;;;;;;20.26;70.16;99658.44;5113096;28;20421;-80
2023/06/20 01:01:21;;;;;;;4.80;2.22;;;;;;;20.17;70.00;99641.03;5111274;28;20114;-80
2023/06/20 01:03:48;;;;;;;4.15;3.25;;;;;;;20.28;69.86;99661.88;5112760;28;20016;-80
2023/06/20 01:06:33;;;;;;;6.63;3.85;;;;;;;20.23;69.95;99658.59;5113662;28;20122;-80
2023/06/20 01:09:16;;;;;;;4.22;2.88;;;;;;;20.09;70.06;99644.16;5112881;28;20062;-80
2023/06/20 01:11:50;;;;;;;6.28;3.00;;;;;;;20.19;70.32;99672.16;5109767;28;20036;-81
2023/06/20 01:14:27;;;;;;;5.10;2.97;;;;;;;20.26;69.23;99655.75;5096401;28;20067;-80
2023/06/20 01:17:22;;;;;;;7.43;3.13;;;;;;;20.23;69.93;99674.66;5092850;28;20417;-81
2023/06/20 01:20:01;;;;;;;6.00;3.10;;;;;;;20.18;70.52;99672.25;5028743;28;20048;-80
2023/06/20 01:23:02;;;;;;;4.35;2.65;;;;;;;20.10;70.80;99664.63;5028766;28;20076;-80
2023/06/20 01:25:46;;;;;;;4.57;3.58;;;;;;;19.77;71.23;99629.84;5029165;28;20052;-80
2023/06/20 01:28:56;;;;;;;6.35;3.70;;;;;;;20.17;70.37;99673.19;5030137;28;20053;-80
2023/06/20 01:31:27;;;;;;;6.68;3.13;;;;;;;19.85;71.83;99665.97;5030166;28;20037;-80
2023/06/20 01:34:14;;;;;;;5.47;3.85;;;;;;;19.90;71.34;99675.56;5027878;28;20033;-80
2023/06/20 01:36:43;;;;;;;5.05;3.83;;;;;;;19.60;71.23;99633.41;5029961;28;20103;-80
2023/06/20 01:39:15;;;;;;;5.72;4.20;;;;;;;19.75;71.16;99661.16;5029617;28;20048;-80
2023/06/20 01:41:44;;;;;;;18.45;3.80;;;;;;;19.62;71.85;99640.41;5012222;28;20037;-79
2023/06/20 01:44:12;;;;;;;5.10;3.78;;;;;;;19.43;72.36;99642.31;5021293;28;20068;-79
2023/06/20 01:46:38;;;;;;;4.13;3.25;;;;;;;19.76;71.66;99663.75;5021561;28;20033;-79
2023/06/20 01:49:06;;;;;;;8.57;3.40;;;;;;;19.78;71.58;99667.22;5025412;28;20040;-80
2023/06/20 01:51:33;;;;;;;5.35;3.97;;;;;;;19.65;72.06;99640.25;5029324;28;20044;-80
2023/06/20 01:54:02;;;;;;;7.60;3.78;;;;;;;19.53;71.90;99622.16;5028117;28;20105;-80
2023/06/20 01:56:29;;;;;;;7.28;3.40;;;;;;;19.81;72.10;99661.72;5052355;28;20096;-80
2023/06/20 01:58:56;;;;;;;6.00;4.85;;;;;;;19.67;71.95;99673.13;5092137;28;20179;-80
2023/06/20 02:01:23;;;;;;;6.13;3.30;;;;;;;19.62;72.19;99669.84;5092121;28;20125;-80
2023/06/20 02:03:52;;;;;;;9.68;4.65;;;;;;;19.58;72.36;99662.06;5091665;28;20035;-78
2023/06/20 02:06:19;;;;;;;9.43;4.18;;;;;;;19.58;72.34;99670.94;5103586;28;20034;-79
2023/06/20 02:08:45;;;;;;;4.38;3.08;;;;;;;19.63;72.46;99666.22;5091596;28;20443;-79
2023/06/20 02:11:12;;;;;;;6.20;3.50;;;;;;;19.55;71.43;99644.34;5110765;28;20043;-80
2023/06/20 02:13:37;;;;;;;6.00;4.10;;;;;;;19.64;72.22;99675.97;5103041;28;20032;-79
2023/06/20 02:16:07;;;;;;;7.80;3.90;;;;;;;19.56;71.99;99654.09;5109877;28;20043;-80
2023/06/20 02:18:32;;;;;;;6.00;3.75;;;;;;;19.58;71.60;99648.69;5112004;28;20038;-79
2023/06/20 02:21:09;;;;;;;6.15;3.80;;;;;;;19.60;71.84;99650.34;5112240;28;20036;-80
2023/06/20 02:23:38;;;;;;;7.57;4.80;;;;;;;19.66;72.04;99682.13;5107244;28;20027;-80
2023/06/20 02:26:09;;;;;;;5.18;3.53;;;;;;;19.57;72.20;99676.38;5108960;28;20031;-80
2023/06/20 02:28:41;;;;;;;5.38;3.63;;;;;;;19.40;72.17;99637.13;5091107;28;20036;-80
2023/06/20 02:31:09;;;;;;;7.40;4.32;;;;;;;19.68;71.62;99671.34;5072922;28;20505;-79
2023/06/20 02:33:37;;;;;;;5.95;4.43;;;;;;;19.52;72.04;99673.94;5090866;28;20066;-80
2023/06/20 02:36:04;;;;;;;7.88;4.90;;;;;;;19.43;72.10;99659.25;5072463;28;20055;-80
2023/06/20 02:38:31;;;;;;;7.75;3.45;;;;;;;19.47;72.45;99676.00;5077560;28;20032;-80
2023/06/20 02:40:57;;;;;;;6.82;3.63;;;;;;;19.23;72.79;99656.72;5111298;28;20469;-80
2023/06/20 02:43:22;;;;;;;9.40;3.92;;;;;;;19.43;72.44;99683.31;5092525;28;20042;-80
2023/06/20 02:45:54;;;;;;;6.28;2.83;;;;;;;19.42;72.12;99678.91;5111318;28;20503;-80
2023/06/20 02:49:01;;;;;;;5.18;3.65;;;;;;;19.43;72.44;99690.47;5109225;28;20031;-80
2023/06/20 02:51:33;;;;;;;6.78;4.85;;;;;;;19.40;71.14;99690.63;5008518;28;20133;-80
2023/06/20 02:54:23;;;;;;;6.55;4.38;;;;;;;19.26;71.82;99694.88;5008734;28;20053;-80
2023/06/20 02:56:54;;;;;;;5.97;3.95;;;;;;;18.78;72.98;99657.16;5008527;28;20077;-80
2023/06/20 02:59:25;;;;;;;4.95;3.25;;;;;;;19.12;73.05;99692.91;4990401;28;20065;-79
2023/06/20 03:01:56;;;;;;;4.80;3.13;;;;;;;19.03;73.28;99685.34;4991245;28;20060;-81
2023/06/20 03:04:24;;;;;;;5.47;4.53;;;;;;;19.06;73.74;99697.69;4991751;28;20026;-80
2023/06/20 03:06:52;;;;;;;4.72;3.03;;;;;;;18.95;74.14;99693.75;5008345;28;20041;-81
2023/06/20 03:09:19;;;;;;;6.97;3.15;;;;;;;18.90;74.60;99702.94;5006963;28;20056;-81
2023/06/20 03:11:45;;;;;;;5.18;3.80;;;;;;;18.81;74.84;99682.81;5008874;28;20203;-81
2023/06/20 03:14:13;;;;;;;6.20;3.60;;;;;;;18.99;74.31;99678.41;5005815;28;20491;-81
2023/06/20 03:16:42;;;;;;;5.50;3.65;;;;;;;19.04;74.70;99716.47;5008294;28;20036;-80
2023/06/20 03:19:11;;;;;;;5.68;2.42;;;;;;;19.00;74.40;99700.66;5006373;28;20049;-80
2023/06/20 03:21:38;;;;;;;3.28;2.55;;;;;;;19.20;73.97;99721.94;5007433;28;20114;-81
2023/06/20 03:24:05;;;;;;;7.05;4.20;;;;;;;19.16;74.29;99709.66;5008221;28;20026;-80
2023/06/20 03:26:31;;;;;;;7.97;3.83;;;;;;;19.14;74.61;99704.38;5086207;28;20036;-81
2023/06/20 03:28:57;;;;;;;6.63;3.38;;;;;;;19.33;74.05;99730.19;5091239;28;20082;-81
2023/06/20 03:31:22;;;;;;;5.65;3.15;;;;;;;19.32;73.61;99710.63;5077638;28;20504;-80
2023/06/20 03:33:49;;;;;;;7.93;4.38;;;;;;;19.57;74.13;99737.91;5110139;28;20028;-80
2023/06/20 03:36:15;;;;;;;3.72;3.05;;;;;;;19.49;73.31;99711.53;5109632;28;20039;-80
2023/06/20 03:38:42;;;;;;;5.00;3.03;;;;;;;19.76;72.97;99729.81;5110566;28;20093;-81
2023/06/20 03:41:08;;;;;;;7.03;3.25;;;;;;;19.75;73.26;99733.41;5096675;28;20125;-81
2023/06/20 03:43:33;;;;;;;5.43;3.30;;;;;;;19.90;72.29;99737.13;5088900;28;20091;-80
2023/06/20 03:45:59;;;;;;;6.43;3.33;;;;;;;19.66;72.71;99706.19;5094744;28;20040;-80
2023/06/20 03:48:25;;;;;;;4.07;2.63;;;;;;;19.53;73.06;99696.22;5089298;28;20032;-80
2023/06/20 03:50:50;;;;;;;5.93;3.85;;;;;;;19.91;73.02;99718.31;5090298;28;20107;-81
2023/06/20 03:53:16;;;;;;;4.85;2.47;;;;;;;20.09;72.02;99721.78;5107939;28;20027;-81
2023/06/20 03:55:41;;;;;;;4.80;3.42;;;;;;;20.14;72.01;99727.78;5105460;28;20497;-81
2023/06/20 03:58:07;;;;;;;4.45;2.90;;;;;;;20.29;71.79;99734.09;5104175;28;20424;-81
2023/06/20 04:00:32;;;;;;;6.53;2.78;;;;;;;20.46;71.56;99735.84;5091316;28;20342;-81
2023/06/20 04:02:58;;;;;;;7.05;4.25;;;;;;;20.37;71.97;99714.94;5089656;28;20020;-81
2023/06/20 04:05:23;;;;;;;18.63;3.28;;;;;;;20.66;71.80;99733.94;5089944;28;20031;-80
2023/06/20 04:07:48;;;;;;;11.68;3.47;;;;;;;20.57;71.30;99711.13;5094199;28;20031;-81
2023/06/20 04:10:14;;;;;;;6.47;3.95;;;;;;;20.74;71.19;99708.44;5096311;28;20027;-81
2023/06/20 04:12:41;;;;;;;17.13;3.75;;;;;;;20.90;70.14;99712.91;5106431;28;20438;-81
2023/06/20 04:15:07;;;;;;;6.97;4.43;;;;;;;20.93;69.78;99720.78;5107431;28;20128;-81
2023/06/20 04:17:33;;;;;;;6.07;2.95;;;;;;;20.89;69.20;99703.13;5098833;28;20028;-81
2023/06/20 04:20:04;;;;;;;8.95;2.80;;;;;;;21.13;69.12;99737.50;5100646;28;20032;-81
2023/06/20 04:22:29;;;;;;;7.72;3.08;;;;;;;21.12;68.00;99728.59;5090005;28;20416;-81
2023/06/20 04:24:55;;;;;;;6.38;3.75;;;;;;;20.99;66.32;99736.50;5090728;28;20032;-81
2023/06/20 04:27:21;;;;;;;4.70;2.83;;;;;;;21.03;66.11;99738.03;5089598;28;20032;-81
2023/06/20 04:29:46;;;;;;;7.30;3.83;;;;;;;21.02;65.69;99690.75;5089294;28;20032;-81
2023/06/20 04:32:12;;;;;;;6.55;4.50;;;;;;;21.40;65.30;99733.22;5098079;28;20015;-81
2023/06/20 04:34:37;;;;;;;32.80;4.78;;;;;;;21.56;65.16;99737.69;5111193;28;20043;-81
2023/06/20 04:37:03;;;;;;;9.23;3.65;;;;;;;21.77;64.82;99746.28;5116936;28;20055;-81
2023/06/20 04:39:31;;;;;;;6.03;3.83;;;;;;;21.74;67.27;99752.69;5119123;28;20031;-81
2023/06/20 04:41:56;;;;;;;7.80;5.10;;;;;;;21.91;67.46;99732.00;5115248;28;20434;-81
2023/06/20 04:44:22;;;;;;;8.95;5.32;;;;;;;21.94;67.65;99748.78;5113829;28;20032;-81
2023/06/20 04:46:47;;;;;;;6.78;3.55;;;;;;;21.69;68.13;99725.28;5110169;28;20503;-81
2023/06/20 04:49:13;;;;;;;7.32;3.80;;;;;;;21.90;68.44;99760.66;5111733;28;20019;-81
2023/06/20 04:51:40;;;;;;;6.22;4.10;;;;;;;21.67;68.48;99713.75;5114004;27;20038;-82
2023/06/20 04:54:08;;;;;;;4.55;3.92;;;;;;;22.04;68.03;99729.44;5094688;28;20032;-81
2023/06/20 04:56:40;;;;;;;8.20;4.57;;;;;;;22.17;67.82;99750.06;5106057;27;20777;-81
2023/06/20 04:59:07;;;;;;;7.03;4.63;;;;;;;22.29;67.12;99756.50;5095212;28;20051;-81
2023/06/20 05:01:32;;;;;;;6.90;4.20;;;;;;;22.55;65.34;99755.81;5092947;28;20035;-81
2023/06/20 05:03:58;;;;;;;6.38;3.63;;;;;;;22.64;65.02;99763.31;5101352;28;20047;-82
2023/06/20 05:06:24;;;;;;;14.13;5.82;;;;;;;22.67;64.19;99755.91;5108888;28;20028;-81
2023/06/20 05:08:49;;;;;;;5.15;4.28;;;;;;;22.79;63.52;99765.00;5103796;28;20028;-82
2023/06/20 05:11:14;;;;;;;8.68;5.10;;;;;;;22.63;61.40;99732.88;5109546;28;20028;-80
2023/06/20 05:13:40;;;;;;;11.48;3.25;;;;;;;22.83;61.93;99774.59;5110753;27;20058;-81
2023/06/20 05:16:05;;;;;;;4.45;2.95;;;;;;;22.74;60.22;99769.81;5101814;27;20028;-81
2023/06/20 05:18:32;;;;;;;8.13;4.18;;;;;;;22.98;59.72;99766.50;5100403;28;20024;-80
2023/06/20 05:20:57;;;;;;;5.00;2.97;;;;;;;23.04;60.06;99748.13;5110791;28;20541;-84
2023/06/20 05:23:25;;;;;;;5.53;3.42;;;;;;;23.24;58.13;99762.97;5097380;27;20027;-83
2023/06/20 05:25:50;;;;;;;4.97;3.00;;;;;;;23.46;58.39;99757.97;5103197;28;20020;-83
2023/06/20 05:28:16;;;;;;;6.20;3.88;;;;;;;23.76;58.21;99782.81;5106528;28;20026;-82
2023/06/20 05:30:42;;;;;;;5.13;2.92;;;;;;;23.82;58.71;99748.34;5101372;28;20035;-83
2023/06/20 05:33:08;;;;;;;8.13;3.70;;;;;;;24.22;57.58;99762.63;5105858;28;20035;-83
2023/06/20 05:35:34;;;;;;;6.18;3.08;;;;;;;24.10;58.13;99745.50;5111764;28;20016;-83
2023/06/20 05:38:00;;;;;;;3.90;2.60;;;;;;;24.27;56.80;99748.81;5102822;27;20661;-82
2023/06/20 05:40:25;;;;;;;8.10;3.40;;;;;;;24.12;57.53;99743.53;5107520;27;20032;-82
2023/06/20 05:42:51;;;;;;;4.65;3.22;;;;;;;24.54;56.75;99735.19;5103998;28;20070;-83
2023/06/20 05:45:16;;;;;;;5.25;3.47;;;;;;;25.04;56.30;99743.28;5102001;27;20450;-84
2023/06/20 05:47:44;;;;;;;6.10;3.08;;;;;;;25.40;54.34;99751.44;5099895;28;20393;-83
2023/06/20 05:50:10;;;;;;;3.88;3.03;;;;;;;25.39;54.69;99755.97;5108356;28;20107;-82
2023/06/20 05:52:35;;;;;;;5.75;3.63;;;;;;;25.11;56.16;99733.72;5111591;28;20125;-81
2023/06/20 05:55:02;;;;;;;5.20;3.30;;;;;;;24.82;55.99;99706.22;5111493;28;20471;-81
2023/06/20 05:57:27;;;;;;;4.88;3.03;;;;;;;25.85;54.02;99751.56;5111646;28;20030;-81
2023/06/20 05:59:53;;;;;;;5.40;2.85;;;;;;;25.66;54.54;99741.34;5109639;28;20404;-81
2023/06/20 06:02:20;;;;;;;5.15;3.22;;;;;;;26.13;52.60;99728.66;5108934;28;20032;-81
2023/06/20 06:04:47;;;;;;;7.25;3.33;;;;;;;26.58;52.30;99744.03;5092188;28;20394;-81
2023/06/20 06:07:12;;;;;;;4.82;3.15;;;;;;;26.82;50.93;99722.25;5101599;28;20027;-81
2023/06/20 06:09:38;;;;;;;13.75;3.83;;;;;;;26.48;51.86;99740.31;5100638;28;20034;-81
2023/06/20 06:12:04;;;;;;;11.45;2.72;;;;;;;26.71;52.48;99719.56;5103263;28;20036;-82
2023/06/20 06:14:29;;;;;;;10.77;2.95;;;;;;;27.10;49.69;99739.75;5094025;28;20434;-81
2023/06/20 06:16:55;;;;;;;6.03;3.53;;;;;;;27.42;49.11;99703.72;5104792;28;20059;-80
2023/06/20 06:19:21;;;;;;;10.70;2.55;;;;;;;27.96;48.34;99714.50;5111525;28;20024;-82
2023/06/20 06:21:47;;;;;;;6.70;3.53;;;;;;;27.56;49.76;99712.50;5111030;28;20027;-81
2023/06/20 06:24:13;;;;;;;4.13;2.67;;;;;;;28.04;47.46;99712.84;5111347;28;20081;-82
2023/06/20 06:26:38;;;;;;;5.00;2.78;;;;;;;28.31;49.69;99718.66;5105893;28;20555;-81
2023/06/20 06:29:07;;;;;;;7.10;4.10;;;;;;;28.39;47.84;99710.69;5096392;27;20448;-81
2023/06/20 06:31:34;;;;;;;4.43;2.80;;;;;;;28.51;48.09;99715.03;5102797;28;20043;-82
2023/06/20 06:34:02;;;;;;;4.35;3.15;;;;;;;28.66;48.64;99688.41;5101226;28;20035;-82
2023/06/20 06:36:31;;;;;;;5.95;3.20;;;;;;;28.84;47.61;99707.59;5111111;28;20104;-82
2023/06/20 06:38:58;;;;;;;3.40;2.20;;;;;;;28.18;46.08;99692.63;5097304;28;20045;-81
2023/06/20 06:41:23;;;;;;;10.73;3.63;;;;;;;28.62;45.17;99700.50;5100733;28;20016;-81
2023/06/20 06:43:49;;;;;;;5.40;3.00;;;;;;;28.68;45.03;99688.25;5103950;28;20368;-81
2023/06/20 06:46:14;;;;;;;3.63;2.40;;;;;;;28.88;42.67;99697.28;5091024;28;20119;-81
2023/06/20 06:48:40;;;;;;;4.22;2.10;;;;;;;28.58;42.04;99691.81;5107056;28;20039;-81
2023/06/20 06:51:06;;;;;;;3.85;2.03;;;;;;;28.24;40.92;99666.84;5111019;28;20156;-81
2023/06/20 06:53:32;;;;;;;6.25;2.47;;;;;;;28.43;41.92;99678.75;5110359;28;20035;-83
2023/06/20 06:55:57;;;;;;;2.65;1.60;;;;;;;28.42;40.84;99677.88;5100805;28;20039;-82
2023/06/20 06:58:23;;;;;;;4.10;2.45;;;;;;;28.50;42.04;99677.19;5107074;28;20019;-85
2023/06/20 07:00:48;;;;;;;10.65;2.88;;;;;;;28.88;41.34;99684.56;5110472;28;20100;-83
2023/06/20 07:03:15;;;;;;;3.33;2.30;;;;;;;28.96;40.40;99667.56;5110313;28;20041;-84
2023/06/20 07:05:40;;;;;;;4.90;2.65;;;;;;;29.14;38.38;99653.31;5110731;28;20028;-83
2023/06/20 07:08:06;;;;;;;3.83;2.55;;;;;;;29.15;39.56;99669.44;5086013;28;20036;-82
2023/06/20 07:10:31;;;;;;;4.10;2.17;;;;;;;28.89;39.41;99645.56;5105778;28;20079;-83
2023/06/20 07:12:57;;;;;;;4.60;1.77;;;;;;;29.61;39.50;99653.38;5104845;27;20077;-83
2023/06/20 07:15:22;;;;;;;1.92;1.27;;;;;;;29.63;37.93;99637.81;5107774;28;20397;-83
2023/06/20 07:17:48;;;;;;;3.88;2.28;;;;;;;29.59;37.61;99658.13;5109089;28;20127;-86
2023/06/20 07:20:13;;;;;;;3.28;2.22;;;;;;;29.93;36.40;99673.94;5109822;28;20504;-84
2023/06/20 07:22:39;;;;;;;4.28;2.47;;;;;;;29.33;37.03;99652.44;5111039;28;20412;-85
2023/06/20 07:25:07;;;;;;;3.05;1.65;;;;;;;29.37;36.20;99643.03;5110558;28;20114;-85
2023/06/20 07:27:33;;;;;;;4.38;2.50;;;;;;;29.49;39.42;99643.69;5110239;28;20041;-89
2023/06/20 07:29:58;;;;;;;3.20;1.77;;;;;;;29.97;35.76;99653.63;5110460;28;20028;-84
2023/06/20 07:32:24;;;;;;;2.47;1.63;;;;;;;29.84;34.59;99672.97;5110125;28;20469;-84
2023/06/20 07:34:49;;;;;;;3.53;2.17;;;;;;;30.08;35.84;99682.47;5110164;28;20055;-85
2023/06/20 07:37:15;;;;;;;2.38;1.40;;;;;;;30.01;35.00;99676.75;5110335;28;20028;-85
2023/06/20 07:39:42;;;;;;;2.88;1.60;;;;;;;29.67;36.56;99666.38;5110595;28;20034;-85
2023/06/20 07:42:11;;;;;;;3.92;1.92;;;;;;;29.68;38.52;99672.72;5110046;28;20071;-86
2023/06/20 07:44:36;;;;;;;3.35;2.10;;;;;;;29.96;34.99;99671.78;5110256;28;20459;-85
2023/06/20 07:47:02;;;;;;;3.42;1.73;;;;;;;29.84;35.70;99663.97;5109818;28;20030;-85
2023/06/20 07:49:30;;;;;;;4.07;2.17;;;;;;;29.70;36.29;99674.25;5110294;28;20111;-86
2023/06/20 07:51:56;;;;;;;2.15;1.60;;;;;;;29.88;34.97;99698.00;5110438;28;20538;-85
2023/06/20 07:54:21;;;;;;;5.57;1.83;;;;;;;30.05;35.28;99680.06;5110218;28;20031;-86
2023/06/20 07:56:46;;;;;;;2.25;1.67;;;;;;;30.09;35.81;99689.63;5110357;28;20081;-85
2023/06/20 07:59:13;;;;;;;4.72;2.75;;;;;;;30.48;36.65;99711.25;5109868;28;20020;-85
2023/06/20 08:01:38;;;;;;;9.18;2.45;;;;;;;30.10;33.81;99692.19;5109873;28;20039;-85
2023/06/20 08:04:04;;;;;;;7.03;1.83;;;;;;;30.51;36.11;99700.91;5109735;28;20032;-86
2023/06/20 08:06:29;;;;;;;4.53;1.92;;;;;;;30.99;34.66;99695.34;5109956;28;20099;-86
2023/06/20 08:08:55;;;;;;;2.58;1.58;;;;;;;31.35;33.07;99700.78;5109648;28;20449;-86
2023/06/20 08:11:21;;;;;;;2.72;1.75;;;;;;;30.92;32.19;99692.34;5109847;28;20027;-86
2023/06/20 08:13:46;;;;;;;8.25;2.45;;;;;;;30.50;34.18;99711.97;5109870;28;20150;-86
2023/06/20 08:16:12;;;;;;;5.63;2.80;;;;;;;30.14;35.08;99700.94;5110267;28;20111;-86
2023/06/20 08:18:37;;;;;;;9.20;1.92;;;;;;;29.93;34.59;99698.41;5109901;28;20019;-85
2023/06/20 08:21:03;;;;;;;3.35;1.92;;;;;;;29.65;34.67;99680.13;5110172;28;20032;-85
2023/06/20 08:23:28;;;;;;;3.25;1.98;;;;;;;29.46;35.39;99683.75;5110121;28;20031;-85
2023/06/20 08:25:57;;;;;;;6.93;2.60;;;;;;;29.69;37.18;99693.41;5112301;28;20055;-86
2023/06/20 08:28:23;;;;;;;3.25;1.92;;;;;;;29.96;35.88;99687.25;5113698;28;20039;-88
2023/06/20 08:30:49;;;;;;;3.78;1.88;;;;;;;29.91;36.23;99700.44;5113137;28;20114;-85
2023/06/20 08:33:15;;;;;;;2.67;1.75;;;;;;;29.67;36.33;99690.84;5113840;28;20470;-86
2023/06/20 08:35:40;;;;;;;4.20;1.60;;;;;;;29.78;36.92;99685.28;5113173;28;20027;-86
2023/06/20 08:38:06;;;;;;;2.47;1.75;;;;;;;29.75;35.75;99643.91;5113686;28;20055;-86
2023/06/20 08:40:31;;;;;;;3.45;2.47;;;;;;;30.05;34.00;99666.47;5113445;28;20030;-87
2023/06/20 08:42:58;;;;;;;4.38;2.95;;;;;;;30.17;36.22;99657.97;5112817;28;20054;-85
2023/06/20 08:45:23;;;;;;;354.38;199.90;;;;;;;31.08;37.29;99685.38;5113039;28;20031;-85
2023/06/20 08:47:49;;;;;;;51.20;30.48;;;;;;;31.32;33.53;99677.41;5113284;28;20028;-85
2023/06/20 08:50:15;;;;;;;3.88;2.00;;;;;;;31.49;33.50;99664.78;5113680;28;20027;-86
2023/06/20 08:52:49;;;;;;;5.13;2.15;;;;;;;31.52;33.28;99658.16;5113112;28;20063;-86
2023/06/20 08:55:16;;;;;;;6.95;2.30;;;;;;;31.37;32.09;99657.88;5113272;28;20043;-86
2023/06/20 08:57:43;;;;;;;2.72;1.67;;;;;;;31.53;31.25;99671.63;5112954;28;20031;-86
2023/06/20 09:00:11;;;;;;;5.18;1.65;;;;;;;31.59;32.76;99632.03;5112628;28;20529;-85
2023/06/20 09:02:36;;;;;;;2.15;1.55;;;;;;;31.77;33.45;99659.22;5094576;28;20028;-86
2023/06/20 09:05:03;;;;;;;4.57;2.75;;;;;;;31.34;33.38;99620.94;5112545;28;20084;-86
2023/06/20 09:07:39;;;;;;;3.13;1.92;;;;;;;32.01;31.15;99665.81;5112652;28;20027;-87
2023/06/20 09:10:09;;;;;;;3.13;1.98;;;;;;;32.31;31.97;99665.31;5113030;28;20028;-87
2023/06/20 09:12:50;;;;;;;3.20;2.08;;;;;;;32.09;31.33;99668.59;5112341;28;20551;-90
2023/06/20 09:15:18;;;;;;;5.03;2.45;;;;;;;31.81;30.91;99671.50;5113050;28;20031;-88
2023/06/20 09:17:44;;;;;;;3.33;2.20;;;;;;;32.22;32.32;99652.66;5112502;28;20028;-90
2023/06/20 09:20:12;;;;;;;4.60;2.05;;;;;;;32.27;32.03;99660.34;5082786;28;20032;-88
2023/06/20 09:22:39;;;;;;;4.25;2.05;;;;;;;32.42;30.17;99657.84;5075936;28;20027;-85
2023/06/20 09:25:06;;;;;;;284.88;225.85;;;;;;;33.11;30.25;99635.81;5107088;27;20061;-85
2023/06/20 09:27:41;;;;;;;32.70;19.17;;;;;;;33.04;29.59;99665.69;5119757;27;20699;-83
2023/06/20 09:30:08;;;;;;;3.55;2.50;;;;;;;32.49;29.89;99645.25;5097326;28;20430;-88
2023/06/20 09:32:39;;;;;;;3.35;1.80;;;;;;;32.60;27.78;99652.28;5073887;28;20032;-86
2023/06/20 09:35:07;;;;;;;2.58;1.83;;;;;;;32.66;31.73;99614.28;5100308;27;20081;-86
2023/06/20 09:37:47;;;;;;;2.85;1.60;;;;;;;32.52;31.04;99666.75;5095015;27;20020;-84
2023/06/20 09:40:14;;;;;;;1.90;1.20;;;;;;;32.62;34.12;99633.84;5095093;27;20054;-85
2023/06/20 09:42:41;;;;;;;3.58;2.13;;;;;;;32.82;32.30;99650.81;5098362;28;20113;-84
2023/06/20 09:45:08;;;;;;;6.40;2.08;;;;;;;32.47;30.87;99637.22;5103812;28;20042;-85
2023/06/20 09:47:36;;;;;;;3.38;1.98;;;;;;;32.71;32.39;99637.50;5109193;28;20032;-84
2023/06/20 09:50:15;;;;;;;4.40;2.03;;;;;;;32.78;30.45;99652.16;5084851;28;20056;-85
2023/06/20 09:52:51;;;;;;;2.08;1.60;;;;;;;32.75;28.06;99647.91;5089783;28;20051;-86
2023/06/20 09:55:20;;;;;;;2.47;1.58;;;;;;;32.80;29.27;99641.94;5091500;27;20464;-86
2023/06/20 09:57:53;;;;;;;2.38;1.23;;;;;;;32.62;28.03;99642.88;5107690;28;20080;-85
2023/06/20 10:00:19;;;;;;;3.63;1.52;;;;;;;32.74;26.38;99653.53;5107031;27;20573;-86
2023/06/20 10:02:48;;;;;;;2.28;1.60;;;;;;;32.74;26.69;99654.38;5086319;28;20044;-85
2023/06/20 10:05:16;;;;;;;2.17;1.20;;;;;;;32.78;26.69;99624.84;5110017;27;20042;-87
2023/06/20 10:07:43;;;;;;;1.88;1.23;;;;;;;32.87;26.70;99603.88;5104576;28;20028;-86
2023/06/20 10:10:10;;;;;;;2.25;1.55;;;;;;;33.02;28.92;99633.06;5106428;28;20028;-88
2023/06/20 10:12:38;;;;;;;3.42;1.27;;;;;;;33.30;29.01;99640.13;5102365;27;20114;-88
2023/06/20 10:15:04;;;;;;;1.60;1.30;;;;;;;33.70;27.13;99636.47;5110457;28;20029;-87
2023/06/20 10:17:35;;;;;;;3.55;1.42;;;;;;;33.76;26.65;99628.63;5111099;28;20080;-86
2023/06/20 10:20:04;;;;;;;3.90;1.95;;;;;;;33.52;29.22;99620.28;5097468;28;20032;-87
2023/06/20 10:22:42;;;;;;;3.20;1.80;;;;;;;33.71;29.29;99635.47;5096869;28;20038;-88
2023/06/20 10:25:14;;;;;;;2.47;1.67;;;;;;;33.88;32.92;99633.56;5113179;27;20040;-85
2023/06/20 10:27:57;;;;;;;1.92;1.40;;;;;;;33.44;29.42;99616.69;5102912;27;20040;-85
2023/06/20 10:30:54;;;;;;;2.57;1.97;;;;;;;33.82;29.53;99627.94;5096122;27;20040;-84
2023/06/20 10:33:27;;;;;;;1.58;1.45;;;;;;;33.78;29.76;99615.63;5106380;28;20040;-83
2023/06/20 10:36:03;;;;;;;3.72;1.60;;;;;;;33.33;29.04;99585.13;5121005;27;20034;-83
2023/06/20 10:38:32;;;;;;;1.52;1.27;;;;;;;33.65;30.07;99595.13;5100572;27;20039;-83
2023/06/20 10:41:09;;;;;;;2.20;1.30;;;;;;;33.78;28.41;99611.00;5100233;28;20042;-83
2023/06/20 10:44:01;;;;;;;3.17;1.85;;;;;;;33.78;28.71;99593.75;5091632;27;20141;-83
2023/06/20 10:46:35;;;;;;;3.15;1.77;;;;;;;34.15;29.65;99617.72;5105516;27;20024;-83
2023/06/20 10:49:03;;;;;;;3.95;1.80;;;;;;;33.92;29.37;99614.06;5100503;27;20063;-82
2023/06/20 10:51:29;;;;;;;2.42;1.58;;;;;;;34.30;30.84;99597.84;5110188;27;20047;-83
2023/06/20 10:54:08;;;;;;;3.85;1.48;;;;;;;33.96;26.81;99602.59;5107705;27;20031;-83
2023/06/20 10:56:35;;;;;;;2.13;1.73;;;;;;;33.29;27.17;99603.75;5106688;27;20497;-84
2023/06/20 10:59:08;;;;;;;2.83;1.73;;;;;;;32.82;28.95;99579.81;5112627;27;20497;-83
2023/06/20 11:01:34;;;;;;;2.63;1.30;;;;;;;33.23;30.90;99590.78;5114160;27;20039;-83
2023/06/20 11:04:01;;;;;;;1.83;1.17;;;;;;;32.77;30.96;99574.84;5111038;27;20114;-85
2023/06/20 11:06:29;;;;;;;4.38;2.05;;;;;;;32.14;29.23;99562.59;5115821;27;20024;-84
2023/06/20 11:08:56;;;;;;;3.75;2.28;;;;;;;31.45;31.03;99567.16;5100118;27;20034;-84
2023/06/20 11:11:39;;;;;;;4.25;1.70;;;;;;;31.32;30.45;99587.50;5111892;27;20039;-84
2023/06/20 11:14:12;;;;;;;1.50;1.10;;;;;;;31.18;28.84;99590.81;5110360;27;20047;-84
2023/06/20 11:16:39;;;;;;;2.90;1.63;;;;;;;31.71;31.30;99600.72;5109680;27;20027;-83
2023/06/20 11:19:05;;;;;;;2.00;1.20;;;;;;;32.26;28.95;99596.75;5113278;27;20031;-84
2023/06/20 11:21:30;;;;;;;3.55;2.10;;;;;;;32.16;28.58;99567.88;5113576;27;20120;-83
2023/06/20 11:24:03;;;;;;;2.65;1.38;;;;;;;32.35;27.89;99569.47;5116053;27;20030;-83
2023/06/20 11:26:29;;;;;;;3.92;1.65;;;;;;;32.59;28.05;99579.59;5103421;27;20035;-83
2023/06/20 11:29:07;;;;;;;2.58;1.33;;;;;;;33.06;27.60;99597.22;5113295;27;20063;-83
2023/06/20 11:31:33;;;;;;;3.50;2.00;;;;;;;32.84;27.07;99575.03;5111249;27;20032;-83
2023/06/20 11:34:03;;;;;;;1.90;1.27;;;;;;;32.40;27.81;99559.75;5098261;28;20031;-82
2023/06/20 11:36:31;;;;;;;3.00;1.60;;;;;;;32.00;28.49;99571.38;5105476;27;20027;-83